Time;durP1;ratioP1;P1;durP2;ratioP2;P2;SDS_P1;SDS_P2;PMS_P1;PMS_P2;Temp;Humidity;BMP_temperature;BMP_pressure;BME280_temperature;BME280_humidity;BME280_pressure;Samples;Min_cycle;Max_cycle;Signal;HPM_P1;HPM_P2
2024/02/10 00:00:20;;;;;;;9.25;6.57;;;8.50;99.90;;;;;;4985722;28;20027;-78
2024/02/10 00:02:46;;;;;;;16.30;7.72;;;8.50;99.90;;;;;;4992461;23;20061;-78
2024/02/10 00:05:15;;;;;;;13.60;8.40;;;8.50;99.90;;;;;;4967920;28;20424;-78
2024/02/10 00:07:57;;;;;;;10.52;7.18;;;8.50;99.90;;;;;;4970739;28;20053;-77
2024/02/10 00:10:25;;;;;;;20.70;9.15;;;8.40;99.90;;;;;;4970681;28;20050;-78
2024/02/10 00:12:51;;;;;;;16.98;9.75;;;8.40;99.90;;;;;;4951468;28;20032;-77
2024/02/10 00:15:20;;;;;;;18.52;10.27;;;8.40;99.90;;;;;;4972471;28;20450;-77
2024/02/10 00:17:45;;;;;;;23.30;10.77;;;8.40;99.90;;;;;;4975902;28;20027;-77
2024/02/10 00:20:15;;;;;;;15.38;9.00;;;8.40;99.90;;;;;;4972535;28;20086;-77
2024/02/10 00:22:46;;;;;;;10.95;7.53;;;8.40;99.90;;;;;;4971700;28;20031;-77
2024/02/10 00:25:13;;;;;;;34.08;10.05;;;8.40;99.90;;;;;;4971026;28;20054;-77
2024/02/10 00:27:39;;;;;;;33.30;8.85;;;8.40;99.90;;;;;;4971538;28;20042;-77
2024/02/10 00:30:07;;;;;;;74.63;9.07;;;8.40;99.90;;;;;;4971272;28;20018;-77
2024/02/10 00:32:33;;;;;;;69.35;8.68;;;8.40;99.90;;;;;;4978853;28;20031;-78
2024/02/10 00:34:59;;;;;;;39.28;8.43;;;8.40;99.90;;;;;;4974448;28;20043;-77
2024/02/10 00:37:25;;;;;;;16.33;8.55;;;8.40;99.90;;;;;;4981950;28;20117;-77
2024/02/10 00:39:51;;;;;;;13.23;6.78;;;8.40;99.90;;;;;;4981013;28;20493;-78
2024/02/10 00:42:18;;;;;;;17.48;8.48;;;8.40;99.90;;;;;;4978620;28;20086;-77
2024/02/10 00:44:49;;;;;;;18.30;8.38;;;8.40;99.90;;;;;;4980906;28;20109;-77
2024/02/10 00:47:15;;;;;;;17.25;9.02;;;8.40;99.90;;;;;;4980863;28;20045;-77
2024/02/10 00:49:41;;;;;;;17.60;8.15;;;8.40;99.90;;;;;;4981369;28;20039;-77
2024/02/10 00:52:18;;;;;;;20.35;8.82;;;8.40;99.90;;;;;;4982189;28;20066;-78
2024/02/10 00:54:47;;;;;;;15.98;7.53;;;8.40;99.90;;;;;;4976719;28;20121;-77
2024/02/10 00:57:12;;;;;;;27.00;9.77;;;8.40;99.90;;;;;;4960094;28;20027;-77
2024/02/10 00:59:41;;;;;;;13.82;7.90;;;8.40;99.90;;;;;;4974635;28;20027;-77
2024/02/10 01:02:10;;;;;;;15.93;8.27;;;8.40;99.90;;;;;;4977789;28;20031;-77
2024/02/10 01:04:36;;;;;;;28.65;8.00;;;8.40;99.90;;;;;;4975688;28;20058;-77
2024/02/10 01:07:02;;;;;;;14.40;6.85;;;8.40;99.90;;;;;;4979046;28;20105;-78
2024/02/10 01:09:29;;;;;;;9.10;5.95;;;8.40;99.90;;;;;;4977005;28;20483;-77
2024/02/10 01:11:55;;;;;;;12.25;5.20;;;8.40;99.90;;;;;;4975559;28;20038;-77
2024/02/10 01:14:21;;;;;;;27.88;5.68;;;8.40;99.90;;;;;;4975877;28;20427;-78
2024/02/10 01:16:48;;;;;;;5.43;4.13;;;8.40;99.90;;;;;;4977930;28;20023;-77
2024/02/10 01:19:17;;;;;;;6.22;4.45;;;8.40;99.90;;;;;;4976734;28;20034;-78
2024/02/10 01:21:43;;;;;;;6.72;4.30;;;8.30;99.90;;;;;;4978544;28;20027;-78
2024/02/10 01:24:09;;;;;;;14.32;3.50;;;8.30;99.90;;;;;;4976421;28;20619;-77
2024/02/10 01:26:35;;;;;;;3.47;3.08;;;8.30;99.90;;;;;;4979493;28;20026;-78
2024/02/10 01:29:09;;;;;;;9.68;2.90;;;8.30;99.90;;;;;;4979671;28;20094;-77
2024/02/10 01:31:35;;;;;;;7.65;2.55;;;8.30;99.90;;;;;;4973902;28;20093;-77
2024/02/10 01:34:01;;;;;;;20.63;3.58;;;8.30;99.90;;;;;;4984208;28;20057;-78
2024/02/10 01:36:29;;;;;;;10.23;3.10;;;8.30;99.90;;;;;;4981636;28;20031;-78
2024/02/10 01:38:55;;;;;;;12.00;3.78;;;8.20;99.90;;;;;;4982192;28;20049;-78
2024/02/10 01:41:20;;;;;;;8.57;3.42;;;8.20;99.90;;;;;;4976585;28;20034;-77
2024/02/10 01:43:48;;;;;;;7.45;4.40;;;8.20;99.90;;;;;;4984680;28;20394;-78
2024/02/10 01:46:22;;;;;;;16.33;4.53;;;8.20;99.90;;;;;;4981046;28;20030;-77
2024/02/10 01:48:49;;;;;;;20.05;4.70;;;8.20;99.90;;;;;;4975678;28;20479;-78
2024/02/10 01:51:18;;;;;;;8.60;5.28;;;8.20;99.90;;;;;;4978145;28;20037;-78
2024/02/10 01:53:45;;;;;;;11.57;7.10;;;8.10;99.90;;;;;;4979735;28;20025;-77
2024/02/10 01:56:16;;;;;;;17.25;7.57;;;8.10;99.90;;;;;;4972432;28;20501;-77
2024/02/10 01:58:47;;;;;;;15.15;6.97;;;8.10;99.90;;;;;;4971493;28;20456;-77
2024/02/10 02:01:16;;;;;;;27.13;9.35;;;8.10;99.90;;;;;;4970677;28;20114;-77
2024/02/10 02:03:46;;;;;;;10.57;5.95;;;8.00;99.90;;;;;;4976893;28;20038;-76
2024/02/10 02:06:17;;;;;;;41.85;8.30;;;8.00;99.90;;;;;;4974039;28;20117;-77
2024/02/10 02:08:51;;;;;;;15.18;6.88;;;7.90;99.90;;;;;;4981636;28;20414;-78
2024/02/10 02:11:17;;;;;;;8.63;6.50;;;7.90;99.90;;;;;;4977486;28;20102;-78
2024/02/10 02:13:43;;;;;;;44.85;7.60;;;7.90;99.90;;;;;;4979326;28;20027;-77
2024/02/10 02:16:12;;;;;;;41.35;9.18;;;7.90;99.90;;;;;;4973802;28;20045;-77
2024/02/10 02:18:39;;;;;;;13.57;6.55;;;7.80;99.90;;;;;;4974802;28;20426;-78
2024/02/10 02:21:06;;;;;;;20.17;6.72;;;7.80;99.90;;;;;;4982381;28;20042;-77
2024/02/10 02:23:34;;;;;;;19.05;7.93;;;7.70;99.90;;;;;;4987111;28;20027;-78
2024/02/10 02:26:00;;;;;;;19.55;6.75;;;7.70;99.90;;;;;;4974801;28;20110;-78
2024/02/10 02:28:26;;;;;;;25.48;6.57;;;7.70;99.90;;;;;;4978650;28;20154;-78
2024/02/10 02:30:52;;;;;;;9.95;5.90;;;7.70;99.90;;;;;;4976926;28;20446;-78
2024/02/10 02:33:17;;;;;;;29.05;5.38;;;7.60;99.90;;;;;;4973062;28;20030;-78
2024/02/10 02:35:43;;;;;;;39.10;7.32;;;7.60;99.90;;;;;;4972649;28;20506;-77
2024/02/10 02:38:13;;;;;;;13.43;5.28;;;7.60;99.90;;;;;;4981691;28;20031;-77
2024/02/10 02:40:42;;;;;;;14.70;5.20;;;7.60;99.90;;;;;;4981252;28;20027;-77
2024/02/10 02:43:08;;;;;;;10.23;4.47;;;7.60;99.90;;;;;;4976946;28;20023;-77
2024/02/10 02:45:35;;;;;;;15.77;5.20;;;7.50;99.90;;;;;;4972762;28;20439;-78
2024/02/10 02:48:06;;;;;;;18.67;5.63;;;7.50;99.90;;;;;;4973524;28;20085;-78
2024/02/10 02:50:34;;;;;;;11.35;4.80;;;7.50;99.90;;;;;;4975314;28;20478;-77
2024/02/10 02:53:02;;;;;;;13.65;5.22;;;7.50;99.90;;;;;;4974915;28;20046;-78
2024/02/10 02:55:30;;;;;;;9.07;4.82;;;7.40;99.90;;;;;;4972639;28;20057;-77
2024/02/10 02:58:01;;;;;;;10.35;5.47;;;7.40;99.90;;;;;;4977669;28;20030;-78
2024/02/10 03:00:29;;;;;;;9.02;4.88;;;7.40;99.90;;;;;;4974981;28;20037;-78
2024/02/10 03:03:02;;;;;;;16.30;5.50;;;7.40;99.90;;;;;;4971980;28;20122;-78
2024/02/10 03:05:29;;;;;;;8.70;4.68;;;7.40;99.90;;;;;;4968115;28;20035;-77
2024/02/10 03:07:54;;;;;;;7.25;5.10;;;7.40;99.90;;;;;;4972937;28;20521;-78
2024/02/10 03:10:20;;;;;;;7.72;5.50;;;7.30;99.90;;;;;;4977705;28;20031;-77
2024/02/10 03:12:49;;;;;;;6.35;5.45;;;7.30;99.90;;;;;;4975438;28;20541;-77
2024/02/10 03:15:15;;;;;;;28.88;7.15;;;7.30;99.90;;;;;;4972123;28;20027;-77
2024/02/10 03:17:41;;;;;;;7.63;6.07;;;7.30;99.90;;;;;;4972569;28;20450;-77
2024/02/10 03:20:09;;;;;;;12.65;6.68;;;7.20;99.90;;;;;;4972500;28;20054;-77
2024/02/10 03:22:36;;;;;;;7.05;5.55;;;7.20;99.90;;;;;;4963237;28;20070;-78
2024/02/10 03:25:02;;;;;;;10.02;6.13;;;7.20;99.90;;;;;;4981883;28;20046;-78
2024/02/10 03:27:28;;;;;;;10.57;5.72;;;7.20;99.90;;;;;;4973542;28;20498;-77
2024/02/10 03:29:53;;;;;;;10.50;5.63;;;7.20;99.90;;;;;;4970832;28;20044;-78
2024/02/10 03:32:19;;;;;;;7.70;5.70;;;7.10;99.90;;;;;;4971186;28;20300;-77
2024/02/10 03:34:45;;;;;;;14.98;5.78;;;7.10;99.90;;;;;;4953429;28;20109;-78
2024/02/10 03:37:12;;;;;;;9.00;5.53;;;7.10;99.90;;;;;;4975825;28;20027;-77
2024/02/10 03:39:38;;;;;;;8.70;5.60;;;7.10;99.90;;;;;;4976055;28;20015;-77
2024/02/10 03:42:07;;;;;;;8.82;5.53;;;7.10;99.90;;;;;;4977321;28;20037;-77
2024/02/10 03:44:34;;;;;;;12.32;5.43;;;7.10;99.90;;;;;;4948439;28;20037;-77
2024/02/10 03:47:03;;;;;;;14.00;6.13;;;7.20;99.90;;;;;;4971988;28;20051;-77
2024/02/10 03:49:29;;;;;;;9.18;5.57;;;7.10;99.90;;;;;;4972105;28;20050;-77
2024/02/10 03:51:55;;;;;;;15.48;6.25;;;7.10;99.90;;;;;;4979817;28;20516;-77
2024/02/10 03:54:22;;;;;;;17.60;5.95;;;7.20;99.90;;;;;;4971853;28;20035;-77
2024/02/10 03:56:49;;;;;;;28.33;6.50;;;7.20;99.90;;;;;;4968136;28;20045;-77
2024/02/10 03:59:16;;;;;;;69.70;8.50;;;7.20;99.90;;;;;;4975671;28;20038;-77
2024/02/10 04:01:45;;;;;;;30.38;8.20;;;7.20;99.90;;;;;;4970179;28;20035;-76
2024/02/10 04:04:12;;;;;;;8.68;5.60;;;7.20;99.90;;;;;;4977501;28;20035;-77
2024/02/10 04:06:39;;;;;;;8.93;5.47;;;7.20;99.90;;;;;;4968804;28;20042;-77
2024/02/10 04:09:06;;;;;;;19.77;6.18;;;7.20;99.90;;;;;;4964547;28;20035;-77
2024/02/10 04:11:32;;;;;;;17.98;6.30;;;7.20;99.90;;;;;;4981503;28;20030;-77
2024/02/10 04:13:59;;;;;;;8.68;5.70;;;7.20;99.90;;;;;;4975614;28;20120;-77
2024/02/10 04:16:25;;;;;;;8.82;6.18;;;7.20;99.90;;;;;;4971299;28;20034;-77
2024/02/10 04:18:53;;;;;;;8.02;5.63;;;7.20;99.90;;;;;;4974125;28;20398;-77
2024/02/10 04:21:20;;;;;;;10.15;5.35;;;7.30;99.90;;;;;;4979946;28;20045;-77
2024/02/10 04:23:46;;;;;;;17.25;5.45;;;7.20;99.90;;;;;;4986952;28;20029;-77
2024/02/10 04:26:12;;;;;;;31.85;7.20;;;7.20;99.90;;;;;;4975868;28;20031;-77
2024/02/10 04:28:38;;;;;;;18.80;6.40;;;7.20;99.90;;;;;;4973715;28;20046;-77
2024/02/10 04:31:04;;;;;;;10.80;5.88;;;7.30;99.90;;;;;;4976839;28;20071;-77
2024/02/10 04:33:30;;;;;;;16.60;5.90;;;7.20;99.90;;;;;;4970573;28;20034;-77
2024/02/10 04:35:56;;;;;;;11.98;4.68;;;7.30;99.90;;;;;;4974572;28;20035;-77
2024/02/10 04:38:22;;;;;;;25.00;5.50;;;7.20;99.90;;;;;;4976902;28;20110;-77
2024/02/10 04:40:48;;;;;;;12.00;4.53;;;7.20;99.90;;;;;;4977150;28;20030;-77
2024/02/10 04:43:17;;;;;;;10.80;4.38;;;7.20;99.90;;;;;;4982490;28;20114;-77
2024/02/10 04:45:44;;;;;;;7.47;4.43;;;7.20;99.90;;;;;;4967395;28;20034;-77
2024/02/10 04:48:12;;;;;;;11.27;4.50;;;7.20;99.90;;;;;;4975835;28;20030;-77
2024/02/10 04:50:38;;;;;;;10.98;4.18;;;7.20;99.90;;;;;;4984572;28;20161;-77
2024/02/10 04:53:08;;;;;;;5.97;3.78;;;7.20;99.90;;;;;;4974772;28;20026;-77
2024/02/10 04:55:36;;;;;;;8.15;3.88;;;7.20;99.90;;;;;;4973032;28;20031;-77
2024/02/10 04:58:03;;;;;;;6.97;3.78;;;7.20;99.90;;;;;;4974500;28;20058;-77
2024/02/10 05:00:28;;;;;;;31.45;5.45;;;7.20;99.90;;;;;;4983742;28;20026;-77
2024/02/10 05:02:54;;;;;;;25.38;4.35;;;7.20;99.90;;;;;;4976661;28;20034;-77
2024/02/10 05:05:20;;;;;;;26.33;4.93;;;7.20;99.90;;;;;;4957202;28;20133;-77
2024/02/10 05:07:48;;;;;;;8.00;4.22;;;7.10;99.90;;;;;;4973802;28;20045;-77
2024/02/10 05:10:20;;;;;;;16.77;5.30;;;7.20;99.90;;;;;;4979699;28;20023;-77
2024/02/10 05:12:47;;;;;;;26.92;5.22;;;7.10;99.90;;;;;;4980577;28;20033;-77
2024/02/10 05:15:19;;;;;;;12.90;4.50;;;7.20;99.90;;;;;;4976334;28;20035;-77
2024/02/10 05:17:49;;;;;;;17.17;4.70;;;7.10;99.90;;;;;;4981921;28;20030;-77
2024/02/10 05:20:18;;;;;;;16.08;5.75;;;7.20;99.90;;;;;;4979819;28;20027;-77
2024/02/10 05:22:49;;;;;;;9.45;4.72;;;7.20;99.90;;;;;;4991327;28;20034;-77
2024/02/10 05:25:18;;;;;;;8.07;5.20;;;7.20;99.90;;;;;;4977524;28;20117;-77
2024/02/10 05:27:48;;;;;;;34.88;6.68;;;7.20;99.90;;;;;;4979986;28;20089;-77
2024/02/10 05:30:20;;;;;;;12.20;4.82;;;7.10;99.90;;;;;;4985327;28;20062;-77
2024/02/10 05:32:50;;;;;;;17.45;5.50;;;7.10;99.90;;;;;;4985185;28;20076;-77
2024/02/10 05:35:20;;;;;;;30.00;6.70;;;7.10;99.90;;;;;;4978393;28;20034;-78
2024/02/10 05:37:53;;;;;;;86.28;7.80;;;7.10;99.90;;;;;;4983147;28;20482;-78
2024/02/10 05:40:26;;;;;;;23.58;5.63;;;7.00;99.90;;;;;;4976948;28;20494;-78
2024/02/10 05:42:52;;;;;;;15.25;4.95;;;7.10;99.90;;;;;;4979626;28;20113;-77
2024/02/10 05:45:21;;;;;;;51.25;6.05;;;7.10;99.90;;;;;;4979040;28;20042;-77
2024/02/10 05:47:50;;;;;;;22.70;4.47;;;7.00;99.90;;;;;;4975723;28;20026;-78
2024/02/10 05:50:20;;;;;;;57.50;6.22;;;7.00;99.90;;;;;;4978393;28;20121;-77
2024/02/10 05:52:47;;;;;;;60.38;5.72;;;7.00;99.90;;;;;;4974842;28;20043;-77
2024/02/10 05:55:25;;;;;;;21.80;4.00;;;7.00;99.90;;;;;;4977629;28;20594;-77
2024/02/10 05:58:06;;;;;;;16.27;3.92;;;7.00;99.90;;;;;;4975040;28;20566;-77
2024/02/10 06:00:33;;;;;;;45.95;5.28;;;7.00;99.90;;;;;;4975867;28;20030;-77
2024/02/10 06:03:00;;;;;;;12.85;3.65;;;7.00;99.90;;;;;;4991621;23;20094;-77
2024/02/10 06:05:25;;;;;;;8.48;3.95;;;6.90;99.90;;;;;;4968501;28;20046;-77
2024/02/10 06:07:52;;;;;;;8.93;3.80;;;6.90;99.90;;;;;;4969821;28;20035;-77
2024/02/10 06:10:18;;;;;;;36.55;4.25;;;6.80;99.90;;;;;;4967240;28;20034;-77
2024/02/10 06:12:45;;;;;;;42.83;4.55;;;6.80;99.90;;;;;;4964675;28;20038;-76
2024/02/10 06:15:12;;;;;;;9.20;4.30;;;6.80;99.90;;;;;;4963540;28;20090;-76
2024/02/10 06:17:43;;;;;;;13.05;4.80;;;6.80;99.90;;;;;;4961915;28;20026;-77
2024/02/10 06:20:14;;;;;;;7.32;3.70;;;6.80;99.90;;;;;;4961422;28;20042;-77
2024/02/10 06:22:47;;;;;;;16.58;4.30;;;6.80;99.90;;;;;;4958369;28;20031;-77
2024/02/10 06:25:22;;;;;;;15.20;4.18;;;6.80;99.90;;;;;;4959302;28;20402;-77
2024/02/10 06:27:51;;;;;;;;;;;6.70;99.90;;;;;;4954233;28;20042;-77
2024/02/10 06:30:17;;;;;;;8.75;4.32;;;6.70;99.90;;;;;;4955358;28;19957;-77
2024/02/10 06:32:46;;;;;;;16.88;5.50;;;6.70;99.90;;;;;;4953451;28;20480;-76
2024/02/10 06:35:13;;;;;;;26.33;6.30;;;6.70;99.90;;;;;;4952158;28;20035;-76
2024/02/10 06:37:40;;;;;;;16.42;5.85;;;6.70;99.90;;;;;;4951804;28;20027;-76
2024/02/10 06:40:08;;;;;;;10.75;5.15;;;6.60;99.90;;;;;;4956169;28;20019;-76
2024/02/10 06:42:35;;;;;;;9.45;5.18;;;6.60;99.90;;;;;;4963491;28;20406;-76
2024/02/10 06:45:13;;;;;;;24.00;5.82;;;6.60;99.90;;;;;;4966765;28;20507;-77
2024/02/10 06:47:40;;;;;;;9.07;4.53;;;6.60;99.90;;;;;;4958222;28;20035;-77
2024/02/10 06:50:06;;;;;;;32.10;6.18;;;6.50;99.90;;;;;;4961208;28;20072;-76
2024/02/10 06:52:37;;;;;;;25.83;6.18;;;6.50;99.90;;;;;;4961223;28;20487;-76
2024/02/10 06:55:07;;;;;;;23.50;7.38;;;6.50;99.90;;;;;;4922424;28;20129;-76
2024/02/10 06:57:33;;;;;;;23.25;8.18;;;6.50;99.90;;;;;;4937685;29;20516;-77
2024/02/10 07:00:14;;;;;;;56.75;10.18;;;6.60;99.90;;;;;;4955437;28;20039;-76
2024/02/10 07:02:47;;;;;;;41.28;8.23;;;6.60;99.90;;;;;;4956001;28;20122;-76
2024/02/10 07:05:15;;;;;;;44.55;8.48;;;6.70;99.90;;;;;;4953767;28;20042;-76
2024/02/10 07:07:48;;;;;;;31.63;7.90;;;6.70;99.90;;;;;;4952395;28;20130;-76
2024/02/10 07:10:19;;;;;;;16.25;7.22;;;6.60;99.90;;;;;;4955876;28;20083;-77
2024/02/10 07:12:46;;;;;;;43.17;8.20;;;6.60;99.90;;;;;;4951052;28;20155;-77
2024/02/10 07:15:17;;;;;;;12.93;6.53;;;6.70;99.90;;;;;;4950598;28;20082;-76
2024/02/10 07:17:46;;;;;;;14.77;6.40;;;6.70;99.90;;;;;;4956243;28;20015;-76
2024/02/10 07:20:18;;;;;;;13.65;6.75;;;6.70;99.90;;;;;;4970508;28;20035;-76
2024/02/10 07:22:49;;;;;;;60.88;24.48;;;6.70;99.90;;;;;;4957918;28;20463;-76
2024/02/10 07:25:18;;;;;;;97.47;38.33;;;6.80;99.90;;;;;;4958328;28;20035;-77
2024/02/10 07:27:46;;;;;;;70.75;23.20;;;6.90;99.90;;;;;;4951522;28;20046;-77
2024/02/10 07:30:13;;;;;;;38.65;16.17;;;6.90;99.90;;;;;;4957544;28;20521;-77
2024/02/10 07:32:39;;;;;;;74.68;25.40;;;7.00;99.90;;;;;;4949984;28;20042;-77
2024/02/10 07:35:06;;;;;;;107.93;21.23;;;7.00;99.90;;;;;;4955207;28;20043;-77
2024/02/10 07:37:32;;;;;;;79.72;19.75;;;7.10;99.90;;;;;;4961297;28;20078;-77
2024/02/10 07:40:03;;;;;;;68.43;17.33;;;7.10;99.90;;;;;;4951408;28;20119;-77
2024/02/10 07:42:28;;;;;;;32.63;13.25;;;7.20;99.90;;;;;;4963096;28;20090;-77
2024/02/10 07:44:55;;;;;;;19.10;8.52;;;7.20;99.90;;;;;;4963093;28;20039;-77
2024/02/10 07:47:24;;;;;;;18.40;7.10;;;7.30;99.90;;;;;;4957237;28;20175;-77
2024/02/10 07:49:53;;;;;;;27.15;6.72;;;7.30;99.90;;;;;;4960169;28;20106;-77
2024/02/10 07:52:19;;;;;;;33.55;7.90;;;7.30;99.90;;;;;;4966243;28;20028;-77
2024/02/10 07:54:49;;;;;;;17.20;7.63;;;7.30;99.90;;;;;;4965707;28;20041;-77
2024/02/10 07:57:19;;;;;;;43.35;9.90;;;7.30;99.90;;;;;;4955127;28;20040;-76
2024/02/10 07:59:50;;;;;;;44.83;10.00;;;7.40;99.90;;;;;;4966366;28;20462;-77
2024/02/10 08:02:25;;;;;;;26.13;6.80;;;7.50;99.90;;;;;;4964115;28;20058;-77
2024/02/10 08:04:54;;;;;;;15.57;6.65;;;7.50;99.90;;;;;;4967013;28;20391;-77
2024/02/10 08:07:20;;;;;;;18.50;6.95;;;7.50;99.90;;;;;;4960973;28;20031;-77
2024/02/10 08:09:46;;;;;;;13.23;7.43;;;7.50;99.90;;;;;;4948899;28;20562;-76
2024/02/10 08:12:17;;;;;;;14.40;7.03;;;7.50;99.90;;;;;;4949894;28;20122;-77
2024/02/10 08:14:50;;;;;;;13.68;7.35;;;7.50;99.90;;;;;;4949898;28;20023;-76
2024/02/10 08:17:16;;;;;;;16.48;7.18;;;7.60;99.90;;;;;;4950897;28;20078;-77
2024/02/10 08:19:42;;;;;;;14.25;6.78;;;7.60;99.90;;;;;;4962177;28;20037;-77
2024/02/10 08:22:09;;;;;;;14.90;6.78;;;7.70;99.90;;;;;;4957904;28;20462;-76
2024/02/10 08:24:43;;;;;;;13.57;6.47;;;7.80;99.90;;;;;;4955320;28;20487;-77
2024/02/10 08:27:10;;;;;;;13.70;7.00;;;7.80;99.90;;;;;;4950260;28;20039;-77
2024/02/10 08:29:36;;;;;;;15.52;8.93;;;7.80;99.90;;;;;;4950111;28;20510;-77
2024/02/10 08:32:03;;;;;;;16.60;10.50;;;7.80;99.90;;;;;;4935590;28;20047;-77
2024/02/10 08:34:35;;;;;;;12.68;7.88;;;7.90;99.90;;;;;;4933624;29;20108;-77
2024/02/10 08:37:04;;;;;;;14.90;7.78;;;7.90;99.90;;;;;;4949894;28;20067;-76
2024/02/10 08:39:33;;;;;;;13.65;7.72;;;8.00;99.90;;;;;;4950449;28;20027;-77
2024/02/10 08:42:00;;;;;;;13.15;7.57;;;8.20;99.90;;;;;;4950881;28;20027;-77
2024/02/10 08:44:28;;;;;;;14.20;7.75;;;8.40;99.90;;;;;;4949437;28;20035;-77
2024/02/10 08:46:53;;;;;;;14.48;10.40;;;8.50;99.90;;;;;;4949063;28;20130;-77
2024/02/10 08:49:21;;;;;;;9.30;6.63;;;8.70;99.90;;;;;;4947382;28;20122;-77
2024/02/10 08:51:53;;;;;;;37.05;20.25;;;8.70;99.90;;;;;;4952530;28;20027;-77
2024/02/10 08:54:19;;;;;;;21.40;12.32;;;8.80;99.90;;;;;;4951888;28;20051;-76
2024/02/10 08:56:45;;;;;;;10.75;6.65;;;9.00;99.90;;;;;;4953263;28;20339;-76
2024/02/10 08:59:12;;;;;;;12.85;7.43;;;9.00;99.90;;;;;;4952136;28;20115;-76
2024/02/10 09:01:42;;;;;;;10.25;7.05;;;9.10;99.90;;;;;;4954254;28;20252;-76
2024/02/10 09:04:11;;;;;;;9.25;6.00;;;9.20;99.90;;;;;;4959883;28;20030;-77
2024/02/10 09:06:37;;;;;;;10.05;6.80;;;9.20;99.90;;;;;;4960531;28;20023;-77
2024/02/10 09:09:04;;;;;;;10.95;7.10;;;9.20;99.90;;;;;;4954237;28;20078;-77
2024/02/10 09:11:37;;;;;;;9.00;6.50;;;9.40;99.90;;;;;;4957865;28;20094;-77
2024/02/10 09:14:03;;;;;;;9.52;7.00;;;9.60;99.90;;;;;;4956613;28;20043;-77
2024/02/10 09:16:30;;;;;;;8.55;6.18;;;9.70;99.90;;;;;;4956076;28;20031;-77
2024/02/10 09:18:57;;;;;;;8.90;6.55;;;9.80;99.90;;;;;;4955111;28;20402;-77
2024/02/10 09:21:23;;;;;;;9.75;6.53;;;9.90;99.90;;;;;;4955084;28;20008;-77
2024/02/10 09:23:49;;;;;;;7.38;6.10;;;10.00;99.90;;;;;;4953042;28;20567;-77
2024/02/10 09:26:17;;;;;;;7.88;6.13;;;10.20;99.90;;;;;;4936784;29;20039;-77
2024/02/10 09:28:44;;;;;;;8.40;5.85;;;10.30;99.90;;;;;;4955436;28;20034;-77
2024/02/10 09:31:13;;;;;;;7.95;5.70;;;10.40;99.90;;;;;;4958337;28;20063;-77
2024/02/10 09:33:48;;;;;;;6.80;5.07;;;10.60;99.90;;;;;;4952623;28;20027;-77
2024/02/10 09:36:13;;;;;;;6.53;5.30;;;10.70;99.90;;;;;;4951129;28;20031;-77
2024/02/10 09:38:43;;;;;;;5.72;4.68;;;10.70;99.90;;;;;;4953742;28;20034;-78
2024/02/10 09:41:10;;;;;;;5.85;4.93;;;10.60;99.90;;;;;;4952309;28;20031;-78
2024/02/10 09:43:38;;;;;;;5.03;4.13;;;10.50;99.90;;;;;;4952751;28;20388;-77
2024/02/10 09:46:08;;;;;;;7.25;4.85;;;10.50;99.90;;;;;;4952205;28;20038;-77
2024/02/10 09:48:41;;;;;;;6.63;5.85;;;10.50;99.90;;;;;;4948895;28;20035;-77
2024/02/10 09:51:08;;;;;;;5.35;4.72;;;10.50;99.90;;;;;;4940159;28;21215;-77
2024/02/10 09:53:34;;;;;;;9.80;7.13;;;10.60;99.90;;;;;;4949062;28;20402;-77
2024/02/10 09:56:01;;;;;;;8.85;7.60;;;10.70;99.90;;;;;;4945091;28;20039;-77
2024/02/10 09:58:27;;;;;;;5.53;4.90;;;10.80;99.90;;;;;;4959084;28;20099;-78
2024/02/10 10:00:54;;;;;;;4.88;4.22;;;11.00;99.90;;;;;;4928996;28;20055;-77
2024/02/10 10:03:20;;;;;;;6.20;4.70;;;10.80;99.90;;;;;;4959137;28;20041;-77
2024/02/10 10:05:47;;;;;;;6.28;3.70;;;10.90;99.90;;;;;;4953965;28;20121;-77
2024/02/10 10:08:13;;;;;;;4.32;3.17;;;11.10;99.90;;;;;;4956506;28;20046;-77
2024/02/10 10:10:40;;;;;;;5.20;3.55;;;11.10;99.90;;;;;;4955118;28;20558;-77
2024/02/10 10:13:11;;;;;;;5.38;3.83;;;11.10;99.90;;;;;;4951699;28;20086;-77
2024/02/10 10:15:39;;;;;;;11.35;6.57;;;11.20;99.90;;;;;;4954239;28;20035;-77
2024/02/10 10:18:19;;;;;;;7.95;5.20;;;10.90;99.90;;;;;;4953167;28;20035;-77
2024/02/10 10:20:46;;;;;;;4.20;3.50;;;10.90;99.90;;;;;;4950522;28;20167;-77
2024/02/10 10:23:14;;;;;;;13.43;8.73;;;10.90;99.90;;;;;;4952143;28;20055;-77
2024/02/10 10:25:43;;;;;;;4.57;3.47;;;11.10;99.90;;;;;;4946015;28;20235;-76
2024/02/10 10:28:13;;;;;;;7.53;4.00;;;11.30;99.90;;;;;;4950267;28;20094;-76
2024/02/10 10:30:43;;;;;;;4.18;2.95;;;11.40;99.90;;;;;;4948711;28;20027;-76
2024/02/10 10:33:10;;;;;;;7.95;4.15;;;11.40;99.90;;;;;;4946005;28;20035;-77
2024/02/10 10:35:44;;;;;;;4.78;3.50;;;11.40;99.90;;;;;;4950506;28;20027;-76
2024/02/10 10:38:11;;;;;;;4.95;3.35;;;11.50;99.90;;;;;;4958145;28;20059;-76
2024/02/10 10:40:38;;;;;;;5.75;3.67;;;11.60;99.90;;;;;;4952881;28;20034;-76
2024/02/10 10:43:10;;;;;;;4.13;3.30;;;11.70;99.90;;;;;;4950139;28;20031;-76
2024/02/10 10:45:37;;;;;;;4.25;3.40;;;11.60;99.90;;;;;;4947667;28;20460;-76
2024/02/10 10:48:04;;;;;;;5.97;4.15;;;11.40;99.90;;;;;;4952616;28;20075;-76
2024/02/10 10:50:31;;;;;;;4.38;3.55;;;11.40;99.90;;;;;;4950354;28;20038;-75
2024/02/10 10:53:09;;;;;;;4.95;3.47;;;11.50;99.90;;;;;;4950609;28;20038;-75
2024/02/10 10:55:55;;;;;;;4.28;3.53;;;11.50;99.90;;;;;;4947293;28;20035;-75
2024/02/10 10:58:38;;;;;;;6.57;4.18;;;11.20;99.90;;;;;;4949370;28;20031;-75
2024/02/10 11:01:05;;;;;;;3.90;3.40;;;11.30;99.90;;;;;;4948871;28;20027;-75
2024/02/10 11:03:32;;;;;;;8.73;4.32;;;11.10;99.90;;;;;;4948336;28;20050;-76
2024/02/10 11:05:57;;;;;;;6.40;3.90;;;11.20;99.90;;;;;;4948506;28;20035;-76
2024/02/10 11:08:27;;;;;;;4.75;4.13;;;11.10;99.90;;;;;;4949950;28;20033;-76
2024/02/10 11:11:00;;;;;;;7.78;4.35;;;11.20;99.90;;;;;;4950998;28;20031;-76
2024/02/10 11:13:28;;;;;;;6.55;4.15;;;11.20;99.90;;;;;;4949112;28;20118;-75
2024/02/10 11:16:14;;;;;;;6.88;4.40;;;11.10;99.90;;;;;;4948923;28;20134;-76
2024/02/10 11:19:02;;;;;;;5.63;4.50;;;11.20;99.90;;;;;;4955255;28;20027;-75
2024/02/10 11:21:30;;;;;;;6.32;4.30;;;11.30;99.90;;;;;;4954513;28;20159;-76
2024/02/10 11:24:14;;;;;;;6.47;5.18;;;11.40;99.90;;;;;;4948658;28;20040;-75
2024/02/10 11:26:41;;;;;;;5.97;4.75;;;11.40;99.90;;;;;;4952638;28;20023;-76
2024/02/10 11:29:18;;;;;;;5.07;4.22;;;11.40;99.90;;;;;;4955129;28;20031;-76
2024/02/10 11:31:45;;;;;;;7.28;4.82;;;11.40;99.90;;;;;;4949140;28;20037;-76
2024/02/10 11:34:18;;;;;;;5.68;4.35;;;11.60;99.90;;;;;;4949734;28;20086;-76
2024/02/10 11:36:54;;;;;;;7.10;5.03;;;11.80;99.90;;;;;;4950445;28;20050;-77
2024/02/10 11:39:24;;;;;;;7.57;5.18;;;11.90;99.90;;;;;;4952524;28;20035;-77
2024/02/10 11:41:55;;;;;;;7.35;5.30;;;11.90;99.90;;;;;;4950511;28;20023;-76
2024/02/10 11:44:26;;;;;;;5.15;4.38;;;11.90;99.90;;;;;;4950097;28;20102;-76
2024/02/10 11:46:51;;;;;;;4.60;3.90;;;11.80;99.90;;;;;;4948922;28;20086;-76
2024/02/10 11:49:18;;;;;;;5.07;4.50;;;11.60;99.90;;;;;;4950411;28;20098;-76
2024/02/10 11:51:43;;;;;;;6.45;4.55;;;11.50;99.90;;;;;;4949959;28;20435;-76
2024/02/10 11:54:09;;;;;;;6.10;4.63;;;11.20;99.90;;;;;;4947861;28;20066;-76
2024/02/10 11:56:35;;;;;;;7.72;5.78;;;11.10;99.90;;;;;;4947941;28;20514;-75
2024/02/10 11:59:05;;;;;;;6.28;4.90;;;11.10;99.90;;;;;;4948968;28;20434;-76
2024/02/10 12:01:33;;;;;;;6.93;5.07;;;11.20;99.90;;;;;;4946883;28;20142;-76
2024/02/10 12:04:03;;;;;;;8.65;5.82;;;11.20;99.90;;;;;;4978180;23;20039;-77
2024/02/10 12:06:29;;;;;;;6.47;4.75;;;11.30;99.90;;;;;;4988259;28;20489;-76
2024/02/10 12:08:55;;;;;;;7.22;5.38;;;11.10;99.90;;;;;;4980239;28;20035;-77
2024/02/10 12:11:26;;;;;;;7.57;5.80;;;11.10;99.90;;;;;;4985957;28;20548;-76
2024/02/10 12:13:56;;;;;;;6.80;4.43;;;11.20;99.90;;;;;;4984721;28;20125;-76
2024/02/10 12:16:23;;;;;;;8.00;5.35;;;11.10;99.90;;;;;;4980197;28;20636;-76
2024/02/10 12:18:49;;;;;;;9.18;4.93;;;11.00;99.90;;;;;;4985787;28;20022;-76
2024/02/10 12:21:19;;;;;;;7.40;5.28;;;11.00;99.90;;;;;;4978206;28;20023;-76
2024/02/10 12:23:48;;;;;;;7.57;5.40;;;10.90;99.90;;;;;;4975625;28;20062;-76
2024/02/10 12:26:15;;;;;;;8.13;5.60;;;10.90;99.90;;;;;;4975620;28;20042;-77
2024/02/10 12:28:41;;;;;;;9.57;5.20;;;10.90;99.90;;;;;;4985158;28;20031;-76
2024/02/10 12:31:07;;;;;;;8.73;5.70;;;11.00;99.90;;;;;;4988518;28;20037;-76
2024/02/10 12:33:34;;;;;;;7.93;5.05;;;11.00;99.90;;;;;;4984017;28;20125;-76
2024/02/10 12:36:00;;;;;;;11.20;5.75;;;11.00;99.90;;;;;;4984512;28;20114;-77
2024/02/10 12:38:26;;;;;;;8.38;5.32;;;10.90;99.90;;;;;;4984517;28;20137;-77
2024/02/10 12:40:53;;;;;;;8.15;5.63;;;10.90;99.90;;;;;;4989933;28;20080;-76
2024/02/10 12:43:20;;;;;;;7.50;5.18;;;10.80;99.90;;;;;;4987840;28;20118;-76
2024/02/10 12:46:04;;;;;;;7.07;5.18;;;10.80;99.90;;;;;;4985821;28;20464;-76
2024/02/10 12:48:30;;;;;;;8.65;5.65;;;10.80;99.90;;;;;;4989886;28;20034;-77
2024/02/10 12:50:57;;;;;;;9.40;5.90;;;10.70;99.90;;;;;;4986326;28;20045;-76
2024/02/10 12:53:24;;;;;;;6.80;5.20;;;10.70;99.90;;;;;;4985151;28;21145;-77